sensor_id;sensor_type;location;lat;lon;timestamp;P1;durP1;ratioP1;P2;durP2;ratioP2
7971;SDS011;4031;49.758;6.120;2023-07-24T00:01:58;2.30;;;1.80;;
7971;SDS011;4031;49.758;6.120;2023-07-24T00:04:23;3.37;;;2.40;;
7971;SDS011;4031;49.758;6.120;2023-07-24T00:06:49;2.30;;;1.87;;
7971;SDS011;4031;49.758;6.120;2023-07-24T00:09:15;2.90;;;2.60;;
7971;SDS011;4031;49.758;6.120;2023-07-24T00:11:40;2.20;;;1.77;;
7971;SDS011;4031;49.758;6.120;2023-07-24T00:14:06;3.20;;;2.10;;
7971;SDS011;4031;49.758;6.120;2023-07-24T00:16:32;2.90;;;1.87;;
7971;SDS011;4031;49.758;6.120;2023-07-24T00:18:57;2.30;;;2.00;;
7971;SDS011;4031;49.758;6.120;2023-07-24T00:21:23;3.40;;;1.90;;
7971;SDS011;4031;49.758;6.120;2023-07-24T00:23:49;3.70;;;2.17;;
7971;SDS011;4031;49.758;6.120;2023-07-24T00:26:14;1.87;;;1.63;;
7971;SDS011;4031;49.758;6.120;2023-07-24T00:28:40;2.20;;;2.00;;
7971;SDS011;4031;49.758;6.120;2023-07-24T00:31:06;2.60;;;2.20;;
7971;SDS011;4031;49.758;6.120;2023-07-24T00:33:31;3.53;;;2.10;;
7971;SDS011;4031;49.758;6.120;2023-07-24T00:35:57;2.80;;;2.20;;
7971;SDS011;4031;49.758;6.120;2023-07-24T00:38:23;3.77;;;2.57;;
7971;SDS011;4031;49.758;6.120;2023-07-24T00:40:49;3.50;;;2.70;;
7971;SDS011;4031;49.758;6.120;2023-07-24T00:43:15;2.67;;;2.17;;
7971;SDS011;4031;49.758;6.120;2023-07-24T00:45:41;2.40;;;2.10;;
7971;SDS011;4031;49.758;6.120;2023-07-24T00:48:07;2.70;;;2.10;;
7971;SDS011;4031;49.758;6.120;2023-07-24T00:50:33;1.77;;;1.63;;
7971;SDS011;4031;49.758;6.120;2023-07-24T00:53:01;4.20;;;2.37;;
7971;SDS011;4031;49.758;6.120;2023-07-24T00:55:27;3.97;;;2.83;;
7971;SDS011;4031;49.758;6.120;2023-07-24T00:57:52;1.93;;;1.83;;
7971;SDS011;4031;49.758;6.120;2023-07-24T01:00:19;4.47;;;2.90;;
7971;SDS011;4031;49.758;6.120;2023-07-24T01:02:44;2.87;;;2.10;;
7971;SDS011;4031;49.758;6.120;2023-07-24T01:05:11;3.43;;;2.63;;
7971;SDS011;4031;49.758;6.120;2023-07-24T01:07:39;3.43;;;2.40;;
7971;SDS011;4031;49.758;6.120;2023-07-24T01:10:05;3.03;;;2.33;;
7971;SDS011;4031;49.758;6.120;2023-07-24T01:15:03;4.87;;;2.70;;
7971;SDS011;4031;49.758;6.120;2023-07-24T01:18:08;4.37;;;2.50;;
7971;SDS011;4031;49.758;6.120;2023-07-24T01:20:36;6.10;;;3.07;;
7971;SDS011;4031;49.758;6.120;2023-07-24T01:26:00;6.97;;;2.40;;
7971;SDS011;4031;49.758;6.120;2023-07-24T01:28:29;3.90;;;2.57;;
7971;SDS011;4031;49.758;6.120;2023-07-24T01:30:55;3.73;;;2.57;;
7971;SDS011;4031;49.758;6.120;2023-07-24T01:33:22;2.63;;;2.40;;
7971;SDS011;4031;49.758;6.120;2023-07-24T01:35:54;6.20;;;2.90;;
7971;SDS011;4031;49.758;6.120;2023-07-24T01:38:25;5.20;;;2.50;;
7971;SDS011;4031;49.758;6.120;2023-07-24T01:40:53;5.00;;;2.43;;
7971;SDS011;4031;49.758;6.120;2023-07-24T01:43:19;3.10;;;2.07;;
7971;SDS011;4031;49.758;6.120;2023-07-24T01:45:45;3.60;;;2.87;;
7971;SDS011;4031;49.758;6.120;2023-07-24T01:48:11;4.07;;;2.33;;
7971;SDS011;4031;49.758;6.120;2023-07-24T01:50:36;3.20;;;2.63;;
7971;SDS011;4031;49.758;6.120;2023-07-24T01:53:02;3.67;;;3.17;;
7971;SDS011;4031;49.758;6.120;2023-07-24T01:55:28;5.37;;;2.77;;
7971;SDS011;4031;49.758;6.120;2023-07-24T01:57:53;4.30;;;2.83;;
7971;SDS011;4031;49.758;6.120;2023-07-24T02:00:19;3.27;;;2.63;;
7971;SDS011;4031;49.758;6.120;2023-07-24T02:02:45;3.03;;;2.47;;
7971;SDS011;4031;49.758;6.120;2023-07-24T02:05:10;3.63;;;2.80;;
7971;SDS011;4031;49.758;6.120;2023-07-24T02:07:37;4.17;;;3.17;;
7971;SDS011;4031;49.758;6.120;2023-07-24T02:10:03;3.60;;;2.50;;
7971;SDS011;4031;49.758;6.120;2023-07-24T02:12:29;4.80;;;3.07;;
7971;SDS011;4031;49.758;6.120;2023-07-24T02:14:54;3.20;;;2.77;;
7971;SDS011;4031;49.758;6.120;2023-07-24T02:17:21;4.43;;;3.00;;
7971;SDS011;4031;49.758;6.120;2023-07-24T02:19:48;5.03;;;2.67;;
7971;SDS011;4031;49.758;6.120;2023-07-24T02:22:14;6.20;;;3.00;;
7971;SDS011;4031;49.758;6.120;2023-07-24T02:24:40;4.27;;;2.83;;
7971;SDS011;4031;49.758;6.120;2023-07-24T02:27:06;5.03;;;2.93;;
7971;SDS011;4031;49.758;6.120;2023-07-24T02:29:32;4.00;;;2.40;;
7971;SDS011;4031;49.758;6.120;2023-07-24T02:31:58;3.50;;;3.00;;
7971;SDS011;4031;49.758;6.120;2023-07-24T02:34:24;9.50;;;2.50;;
7971;SDS011;4031;49.758;6.120;2023-07-24T02:36:52;5.70;;;3.70;;
7971;SDS011;4031;49.758;6.120;2023-07-24T02:39:18;3.93;;;2.80;;
7971;SDS011;4031;49.758;6.120;2023-07-24T02:41:45;4.00;;;3.00;;
7971;SDS011;4031;49.758;6.120;2023-07-24T02:44:10;3.50;;;2.50;;
7971;SDS011;4031;49.758;6.120;2023-07-24T02:46:37;5.57;;;3.17;;
7971;SDS011;4031;49.758;6.120;2023-07-24T02:49:02;5.60;;;3.30;;
7971;SDS011;4031;49.758;6.120;2023-07-24T02:51:28;4.80;;;3.23;;
7971;SDS011;4031;49.758;6.120;2023-07-24T02:53:54;4.20;;;2.93;;
7971;SDS011;4031;49.758;6.120;2023-07-24T02:56:20;3.20;;;2.43;;
7971;SDS011;4031;49.758;6.120;2023-07-24T02:58:46;4.20;;;2.67;;
7971;SDS011;4031;49.758;6.120;2023-07-24T03:01:12;3.60;;;3.10;;
7971;SDS011;4031;49.758;6.120;2023-07-24T03:03:39;4.93;;;4.20;;
7971;SDS011;4031;49.758;6.120;2023-07-24T03:06:05;3.17;;;2.70;;
7971;SDS011;4031;49.758;6.120;2023-07-24T03:08:31;5.97;;;3.20;;
7971;SDS011;4031;49.758;6.120;2023-07-24T03:10:57;5.43;;;3.20;;
7971;SDS011;4031;49.758;6.120;2023-07-24T03:13:23;4.13;;;3.07;;
7971;SDS011;4031;49.758;6.120;2023-07-24T03:15:55;4.73;;;2.90;;
7971;SDS011;4031;49.758;6.120;2023-07-24T03:18:23;4.70;;;3.47;;
7971;SDS011;4031;49.758;6.120;2023-07-24T03:20:49;4.87;;;3.17;;
7971;SDS011;4031;49.758;6.120;2023-07-24T03:23:15;3.40;;;2.97;;
7971;SDS011;4031;49.758;6.120;2023-07-24T03:25:41;5.40;;;3.43;;
7971;SDS011;4031;49.758;6.120;2023-07-24T03:28:07;3.80;;;2.90;;
7971;SDS011;4031;49.758;6.120;2023-07-24T03:30:33;5.33;;;3.80;;
7971;SDS011;4031;49.758;6.120;2023-07-24T03:32:59;5.20;;;3.87;;
7971;SDS011;4031;49.758;6.120;2023-07-24T03:35:26;5.93;;;3.97;;
7971;SDS011;4031;49.758;6.120;2023-07-24T03:37:51;5.50;;;3.73;;
7971;SDS011;4031;49.758;6.120;2023-07-24T03:40:17;3.93;;;2.80;;
7971;SDS011;4031;49.758;6.120;2023-07-24T03:42:43;3.57;;;2.80;;
7971;SDS011;4031;49.758;6.120;2023-07-24T03:45:08;6.23;;;4.00;;
7971;SDS011;4031;49.758;6.120;2023-07-24T03:47:34;5.53;;;3.47;;
7971;SDS011;4031;49.758;6.120;2023-07-24T03:50:00;4.70;;;3.67;;
7971;SDS011;4031;49.758;6.120;2023-07-24T03:52:26;5.53;;;3.80;;
7971;SDS011;4031;49.758;6.120;2023-07-24T03:54:52;3.97;;;3.37;;
7971;SDS011;4031;49.758;6.120;2023-07-24T03:57:17;4.67;;;3.33;;
7971;SDS011;4031;49.758;6.120;2023-07-24T03:59:43;4.90;;;3.43;;
7971;SDS011;4031;49.758;6.120;2023-07-24T04:02:09;5.10;;;3.83;;
7971;SDS011;4031;49.758;6.120;2023-07-24T04:04:35;4.63;;;3.47;;
7971;SDS011;4031;49.758;6.120;2023-07-24T04:07:02;7.03;;;3.87;;
7971;SDS011;4031;49.758;6.120;2023-07-24T04:09:28;5.37;;;3.57;;
7971;SDS011;4031;49.758;6.120;2023-07-24T04:11:54;3.50;;;3.20;;
7971;SDS011;4031;49.758;6.120;2023-07-24T04:14:19;4.77;;;3.03;;
7971;SDS011;4031;49.758;6.120;2023-07-24T04:16:45;4.70;;;3.50;;
7971;SDS011;4031;49.758;6.120;2023-07-24T04:19:11;3.97;;;3.30;;
7971;SDS011;4031;49.758;6.120;2023-07-24T04:21:37;5.27;;;3.20;;
7971;SDS011;4031;49.758;6.120;2023-07-24T04:24:02;5.27;;;3.67;;
7971;SDS011;4031;49.758;6.120;2023-07-24T04:26:28;4.27;;;3.23;;
7971;SDS011;4031;49.758;6.120;2023-07-24T04:28:54;5.67;;;3.43;;
7971;SDS011;4031;49.758;6.120;2023-07-24T04:31:20;5.27;;;3.27;;
7971;SDS011;4031;49.758;6.120;2023-07-24T04:33:45;4.17;;;2.90;;
7971;SDS011;4031;49.758;6.120;2023-07-24T04:36:11;3.37;;;2.60;;
7971;SDS011;4031;49.758;6.120;2023-07-24T04:38:37;5.30;;;2.70;;
7971;SDS011;4031;49.758;6.120;2023-07-24T04:41:02;3.60;;;2.50;;
7971;SDS011;4031;49.758;6.120;2023-07-24T04:43:28;4.77;;;2.90;;
7971;SDS011;4031;49.758;6.120;2023-07-24T04:45:54;4.47;;;2.60;;
7971;SDS011;4031;49.758;6.120;2023-07-24T04:48:20;5.13;;;2.90;;
7971;SDS011;4031;49.758;6.120;2023-07-24T04:50:46;4.50;;;3.43;;
7971;SDS011;4031;49.758;6.120;2023-07-24T04:53:12;4.93;;;2.70;;
7971;SDS011;4031;49.758;6.120;2023-07-24T04:55:37;3.33;;;2.57;;
7971;SDS011;4031;49.758;6.120;2023-07-24T04:58:03;4.47;;;2.83;;
7971;SDS011;4031;49.758;6.120;2023-07-24T05:00:29;2.90;;;2.67;;
7971;SDS011;4031;49.758;6.120;2023-07-24T05:02:55;5.30;;;3.20;;
7971;SDS011;4031;49.758;6.120;2023-07-24T05:05:20;4.80;;;3.17;;
7971;SDS011;4031;49.758;6.120;2023-07-24T05:07:46;6.00;;;3.60;;
7971;SDS011;4031;49.758;6.120;2023-07-24T05:10:12;3.13;;;2.83;;
7971;SDS011;4031;49.758;6.120;2023-07-24T05:12:40;5.67;;;2.87;;
7971;SDS011;4031;49.758;6.120;2023-07-24T05:15:07;3.13;;;2.83;;
7971;SDS011;4031;49.758;6.120;2023-07-24T05:17:33;4.87;;;2.40;;
7971;SDS011;4031;49.758;6.120;2023-07-24T05:19:59;6.00;;;3.00;;
7971;SDS011;4031;49.758;6.120;2023-07-24T05:22:25;3.23;;;2.60;;
7971;SDS011;4031;49.758;6.120;2023-07-24T05:24:51;3.00;;;2.17;;
7971;SDS011;4031;49.758;6.120;2023-07-24T05:27:16;4.57;;;2.97;;
7971;SDS011;4031;49.758;6.120;2023-07-24T05:29:42;3.03;;;2.43;;
7971;SDS011;4031;49.758;6.120;2023-07-24T05:32:08;4.43;;;2.80;;
7971;SDS011;4031;49.758;6.120;2023-07-24T05:34:34;5.50;;;3.33;;
7971;SDS011;4031;49.758;6.120;2023-07-24T05:36:59;3.90;;;2.63;;
7971;SDS011;4031;49.758;6.120;2023-07-24T05:39:25;4.03;;;2.97;;
7971;SDS011;4031;49.758;6.120;2023-07-24T05:41:51;4.00;;;3.30;;
7971;SDS011;4031;49.758;6.120;2023-07-24T05:44:16;4.40;;;2.80;;
7971;SDS011;4031;49.758;6.120;2023-07-24T05:46:42;2.57;;;2.30;;
7971;SDS011;4031;49.758;6.120;2023-07-24T05:49:08;5.77;;;3.13;;
7971;SDS011;4031;49.758;6.120;2023-07-24T05:51:33;4.77;;;2.97;;
7971;SDS011;4031;49.758;6.120;2023-07-24T05:53:59;3.60;;;2.80;;
7971;SDS011;4031;49.758;6.120;2023-07-24T05:56:25;3.67;;;2.90;;
7971;SDS011;4031;49.758;6.120;2023-07-24T05:58:51;4.93;;;2.93;;
7971;SDS011;4031;49.758;6.120;2023-07-24T06:01:16;4.47;;;3.10;;
7971;SDS011;4031;49.758;6.120;2023-07-24T06:03:42;7.27;;;3.30;;
7971;SDS011;4031;49.758;6.120;2023-07-24T06:06:08;4.10;;;2.60;;
7971;SDS011;4031;49.758;6.120;2023-07-24T06:08:33;8.60;;;3.07;;
7971;SDS011;4031;49.758;6.120;2023-07-24T06:10:59;4.93;;;3.00;;
7971;SDS011;4031;49.758;6.120;2023-07-24T06:13:25;4.53;;;3.50;;
7971;SDS011;4031;49.758;6.120;2023-07-24T06:15:51;3.97;;;3.10;;
7971;SDS011;4031;49.758;6.120;2023-07-24T06:18:17;3.47;;;2.77;;
7971;SDS011;4031;49.758;6.120;2023-07-24T06:20:43;3.40;;;2.27;;
7971;SDS011;4031;49.758;6.120;2023-07-24T06:23:09;5.10;;;2.40;;
7971;SDS011;4031;49.758;6.120;2023-07-24T06:25:35;4.23;;;2.60;;
7971;SDS011;4031;49.758;6.120;2023-07-24T06:28:00;7.10;;;3.30;;
7971;SDS011;4031;49.758;6.120;2023-07-24T06:30:26;4.10;;;2.43;;
7971;SDS011;4031;49.758;6.120;2023-07-24T06:32:52;5.97;;;2.90;;
7971;SDS011;4031;49.758;6.120;2023-07-24T06:35:17;4.40;;;2.67;;
7971;SDS011;4031;49.758;6.120;2023-07-24T06:37:43;6.67;;;3.40;;
7971;SDS011;4031;49.758;6.120;2023-07-24T06:40:10;5.20;;;3.07;;
7971;SDS011;4031;49.758;6.120;2023-07-24T06:42:36;3.93;;;3.27;;
7971;SDS011;4031;49.758;6.120;2023-07-24T06:45:02;5.10;;;3.27;;
7971;SDS011;4031;49.758;6.120;2023-07-24T06:47:28;4.83;;;3.17;;
7971;SDS011;4031;49.758;6.120;2023-07-24T06:49:54;4.27;;;2.63;;
7971;SDS011;4031;49.758;6.120;2023-07-24T06:52:20;4.73;;;3.13;;
7971;SDS011;4031;49.758;6.120;2023-07-24T06:54:45;5.00;;;3.33;;
7971;SDS011;4031;49.758;6.120;2023-07-24T06:57:11;5.47;;;3.20;;
7971;SDS011;4031;49.758;6.120;2023-07-24T06:59:37;4.83;;;3.10;;
7971;SDS011;4031;49.758;6.120;2023-07-24T07:02:02;4.53;;;2.77;;
7971;SDS011;4031;49.758;6.120;2023-07-24T07:04:28;5.70;;;3.37;;
7971;SDS011;4031;49.758;6.120;2023-07-24T07:06:54;5.20;;;2.90;;
7971;SDS011;4031;49.758;6.120;2023-07-24T07:09:20;5.03;;;3.50;;
7971;SDS011;4031;49.758;6.120;2023-07-24T07:11:46;4.87;;;3.37;;
7971;SDS011;4031;49.758;6.120;2023-07-24T07:14:11;5.60;;;3.60;;
7971;SDS011;4031;49.758;6.120;2023-07-24T07:16:37;5.20;;;3.07;;
7971;SDS011;4031;49.758;6.120;2023-07-24T07:19:03;3.67;;;2.90;;
7971;SDS011;4031;49.758;6.120;2023-07-24T07:21:29;6.47;;;2.93;;
7971;SDS011;4031;49.758;6.120;2023-07-24T07:23:55;4.33;;;2.50;;
7971;SDS011;4031;49.758;6.120;2023-07-24T07:26:20;4.00;;;2.67;;
7971;SDS011;4031;49.758;6.120;2023-07-24T07:28:47;4.13;;;2.83;;
7971;SDS011;4031;49.758;6.120;2023-07-24T07:31:13;3.37;;;2.50;;
7971;SDS011;4031;49.758;6.120;2023-07-24T07:33:38;3.93;;;2.87;;
7971;SDS011;4031;49.758;6.120;2023-07-24T07:36:04;3.77;;;2.70;;
7971;SDS011;4031;49.758;6.120;2023-07-24T07:38:31;4.70;;;3.40;;
7971;SDS011;4031;49.758;6.120;2023-07-24T07:40:57;4.83;;;3.10;;
7971;SDS011;4031;49.758;6.120;2023-07-24T07:43:23;7.83;;;3.30;;
7971;SDS011;4031;49.758;6.120;2023-07-24T07:45:49;3.60;;;2.40;;
7971;SDS011;4031;49.758;6.120;2023-07-24T07:48:14;4.73;;;2.97;;
7971;SDS011;4031;49.758;6.120;2023-07-24T07:50:40;4.73;;;3.13;;
7971;SDS011;4031;49.758;6.120;2023-07-24T07:53:06;4.90;;;3.27;;
7971;SDS011;4031;49.758;6.120;2023-07-24T07:55:32;4.50;;;2.97;;
7971;SDS011;4031;49.758;6.120;2023-07-24T07:57:57;3.50;;;2.50;;
7971;SDS011;4031;49.758;6.120;2023-07-24T08:00:23;4.50;;;2.77;;
7971;SDS011;4031;49.758;6.120;2023-07-24T08:02:49;4.90;;;3.37;;
7971;SDS011;4031;49.758;6.120;2023-07-24T08:05:14;4.37;;;2.53;;
7971;SDS011;4031;49.758;6.120;2023-07-24T08:07:40;3.40;;;2.40;;
7971;SDS011;4031;49.758;6.120;2023-07-24T08:10:06;3.97;;;3.33;;
7971;SDS011;4031;49.758;6.120;2023-07-24T08:12:33;4.97;;;3.33;;
7971;SDS011;4031;49.758;6.120;2023-07-24T08:14:58;3.90;;;3.03;;
7971;SDS011;4031;49.758;6.120;2023-07-24T08:17:24;4.30;;;2.20;;
7971;SDS011;4031;49.758;6.120;2023-07-24T08:19:50;4.20;;;2.97;;
7971;SDS011;4031;49.758;6.120;2023-07-24T08:22:16;4.10;;;3.70;;
7971;SDS011;4031;49.758;6.120;2023-07-24T08:24:41;4.40;;;3.17;;
7971;SDS011;4031;49.758;6.120;2023-07-24T08:27:09;3.73;;;3.00;;
7971;SDS011;4031;49.758;6.120;2023-07-24T08:29:35;3.80;;;3.00;;
7971;SDS011;4031;49.758;6.120;2023-07-24T08:32:02;3.50;;;2.00;;
7971;SDS011;4031;49.758;6.120;2023-07-24T08:34:29;5.00;;;3.13;;
7971;SDS011;4031;49.758;6.120;2023-07-24T08:36:55;3.90;;;3.27;;
7971;SDS011;4031;49.758;6.120;2023-07-24T08:39:21;4.00;;;2.83;;
7971;SDS011;4031;49.758;6.120;2023-07-24T08:41:46;3.40;;;3.10;;
7971;SDS011;4031;49.758;6.120;2023-07-24T08:44:12;4.63;;;3.37;;
7971;SDS011;4031;49.758;6.120;2023-07-24T08:46:39;3.20;;;2.50;;
7971;SDS011;4031;49.758;6.120;2023-07-24T08:49:06;4.00;;;3.10;;
7971;SDS011;4031;49.758;6.120;2023-07-24T08:51:37;3.40;;;3.10;;
7971;SDS011;4031;49.758;6.120;2023-07-24T08:54:05;4.50;;;2.73;;
7971;SDS011;4031;49.758;6.120;2023-07-24T08:56:31;3.97;;;3.57;;
7971;SDS011;4031;49.758;6.120;2023-07-24T08:58:56;3.83;;;3.23;;
7971;SDS011;4031;49.758;6.120;2023-07-24T09:01:22;6.00;;;2.90;;
7971;SDS011;4031;49.758;6.120;2023-07-24T09:03:48;3.57;;;3.27;;
7971;SDS011;4031;49.758;6.120;2023-07-24T09:06:13;6.23;;;3.43;;
7971;SDS011;4031;49.758;6.120;2023-07-24T09:08:40;4.40;;;3.60;;
7971;SDS011;4031;49.758;6.120;2023-07-24T09:11:08;4.13;;;3.43;;
7971;SDS011;4031;49.758;6.120;2023-07-24T09:13:36;10.13;;;3.73;;
7971;SDS011;4031;49.758;6.120;2023-07-24T09:16:07;4.60;;;3.30;;
7971;SDS011;4031;49.758;6.120;2023-07-24T09:18:39;3.60;;;3.00;;
7971;SDS011;4031;49.758;6.120;2023-07-24T09:21:06;4.23;;;2.43;;
7971;SDS011;4031;49.758;6.120;2023-07-24T09:23:32;4.40;;;3.13;;
7971;SDS011;4031;49.758;6.120;2023-07-24T09:25:58;14.33;;;3.63;;
7971;SDS011;4031;49.758;6.120;2023-07-24T09:28:24;4.37;;;3.53;;
7971;SDS011;4031;49.758;6.120;2023-07-24T09:30:53;6.53;;;3.10;;
7971;SDS011;4031;49.758;6.120;2023-07-24T09:33:22;5.03;;;3.30;;
7971;SDS011;4031;49.758;6.120;2023-07-24T09:36:09;3.43;;;3.13;;
7971;SDS011;4031;49.758;6.120;2023-07-24T09:38:39;5.80;;;3.93;;
7971;SDS011;4031;49.758;6.120;2023-07-24T09:41:06;7.60;;;3.83;;
7971;SDS011;4031;49.758;6.120;2023-07-24T09:43:32;4.83;;;3.40;;
7971;SDS011;4031;49.758;6.120;2023-07-24T09:46:00;4.10;;;3.33;;
7971;SDS011;4031;49.758;6.120;2023-07-24T09:48:29;3.87;;;3.23;;
7971;SDS011;4031;49.758;6.120;2023-07-24T09:50:57;7.43;;;2.77;;
7971;SDS011;4031;49.758;6.120;2023-07-24T09:53:38;5.77;;;4.23;;
7971;SDS011;4031;49.758;6.120;2023-07-24T09:56:09;3.30;;;2.83;;
7971;SDS011;4031;49.758;6.120;2023-07-24T09:58:38;3.67;;;3.00;;
7971;SDS011;4031;49.758;6.120;2023-07-24T10:01:08;4.83;;;3.10;;
7971;SDS011;4031;49.758;6.120;2023-07-24T10:03:38;6.33;;;2.93;;
7971;SDS011;4031;49.758;6.120;2023-07-24T10:06:08;3.50;;;2.80;;
7971;SDS011;4031;49.758;6.120;2023-07-24T10:08:36;4.30;;;3.00;;
7971;SDS011;4031;49.758;6.120;2023-07-24T10:11:03;5.77;;;3.50;;
7971;SDS011;4031;49.758;6.120;2023-07-24T10:13:29;4.67;;;3.87;;
7971;SDS011;4031;49.758;6.120;2023-07-24T10:15:56;5.13;;;3.10;;
7971;SDS011;4031;49.758;6.120;2023-07-24T10:18:26;3.97;;;3.60;;
7971;SDS011;4031;49.758;6.120;2023-07-24T10:21:00;3.73;;;3.43;;
7971;SDS011;4031;49.758;6.120;2023-07-24T10:23:28;2.10;;;1.87;;
7971;SDS011;4031;49.758;6.120;2023-07-24T10:25:54;5.83;;;2.70;;
7971;SDS011;4031;49.758;6.120;2023-07-24T10:28:29;3.10;;;2.73;;
7971;SDS011;4031;49.758;6.120;2023-07-24T10:31:03;3.00;;;2.43;;
7971;SDS011;4031;49.758;6.120;2023-07-24T10:33:53;4.00;;;2.63;;
7971;SDS011;4031;49.758;6.120;2023-07-24T10:36:20;3.00;;;2.47;;
7971;SDS011;4031;49.758;6.120;2023-07-24T10:38:52;3.77;;;2.27;;
7971;SDS011;4031;49.758;6.120;2023-07-24T10:41:21;4.53;;;2.33;;
7971;SDS011;4031;49.758;6.120;2023-07-24T10:43:50;3.70;;;2.97;;
7971;SDS011;4031;49.758;6.120;2023-07-24T10:46:18;4.23;;;2.07;;
7971;SDS011;4031;49.758;6.120;2023-07-24T10:48:49;3.10;;;1.87;;
7971;SDS011;4031;49.758;6.120;2023-07-24T10:51:16;2.97;;;1.87;;
7971;SDS011;4031;49.758;6.120;2023-07-24T10:53:44;2.00;;;1.40;;
7971;SDS011;4031;49.758;6.120;2023-07-24T10:56:11;2.73;;;2.03;;
7971;SDS011;4031;49.758;6.120;2023-07-24T10:58:38;1.50;;;1.30;;
7971;SDS011;4031;49.758;6.120;2023-07-24T11:01:04;1.97;;;1.50;;
7971;SDS011;4031;49.758;6.120;2023-07-24T11:03:32;1.57;;;1.30;;
7971;SDS011;4031;49.758;6.120;2023-07-24T11:06:00;2.40;;;1.67;;
7971;SDS011;4031;49.758;6.120;2023-07-24T11:08:28;1.70;;;1.60;;
7971;SDS011;4031;49.758;6.120;2023-07-24T11:10:55;1.23;;;1.10;;
7971;SDS011;4031;49.758;6.120;2023-07-24T11:13:26;1.73;;;1.00;;
7971;SDS011;4031;49.758;6.120;2023-07-24T11:15:53;1.13;;;0.87;;
7971;SDS011;4031;49.758;6.120;2023-07-24T11:18:20;1.77;;;1.10;;
7971;SDS011;4031;49.758;6.120;2023-07-24T11:20:51;1.63;;;1.00;;
7971;SDS011;4031;49.758;6.120;2023-07-24T11:23:19;1.30;;;1.13;;
7971;SDS011;4031;49.758;6.120;2023-07-24T11:25:45;1.10;;;0.90;;
7971;SDS011;4031;49.758;6.120;2023-07-24T11:28:12;1.30;;;1.20;;
7971;SDS011;4031;49.758;6.120;2023-07-24T11:30:39;0.60;;;0.50;;
7971;SDS011;4031;49.758;6.120;2023-07-24T11:33:07;1.13;;;1.03;;
7971;SDS011;4031;49.758;6.120;2023-07-24T11:35:35;1.07;;;0.70;;
7971;SDS011;4031;49.758;6.120;2023-07-24T11:38:04;0.90;;;0.60;;
7971;SDS011;4031;49.758;6.120;2023-07-24T11:40:32;1.20;;;0.70;;
7971;SDS011;4031;49.758;6.120;2023-07-24T11:43:14;0.73;;;0.73;;
7971;SDS011;4031;49.758;6.120;2023-07-24T11:45:46;0.87;;;0.50;;
7971;SDS011;4031;49.758;6.120;2023-07-24T11:48:19;1.30;;;0.90;;
7971;SDS011;4031;49.758;6.120;2023-07-24T11:50:50;0.70;;;0.70;;
7971;SDS011;4031;49.758;6.120;2023-07-24T11:55:52;1.00;;;0.90;;
7971;SDS011;4031;49.758;6.120;2023-07-24T11:58:20;0.70;;;0.70;;
7971;SDS011;4031;49.758;6.120;2023-07-24T12:00:47;1.17;;;0.80;;
7971;SDS011;4031;49.758;6.120;2023-07-24T12:03:15;1.10;;;0.83;;
7971;SDS011;4031;49.758;6.120;2023-07-24T12:05:47;1.00;;;0.77;;
7971;SDS011;4031;49.758;6.120;2023-07-24T12:08:13;1.90;;;0.93;;
7971;SDS011;4031;49.758;6.120;2023-07-24T12:10:39;1.90;;;1.00;;
7971;SDS011;4031;49.758;6.120;2023-07-24T12:13:06;0.80;;;0.77;;
7971;SDS011;4031;49.758;6.120;2023-07-24T12:15:32;0.70;;;0.63;;
7971;SDS011;4031;49.758;6.120;2023-07-24T12:18:02;1.23;;;1.13;;
7971;SDS011;4031;49.758;6.120;2023-07-24T12:20:29;1.30;;;1.20;;
7971;SDS011;4031;49.758;6.120;2023-07-24T12:22:56;3.77;;;1.30;;
7971;SDS011;4031;49.758;6.120;2023-07-24T12:25:22;2.60;;;1.17;;
7971;SDS011;4031;49.758;6.120;2023-07-24T12:27:49;1.93;;;1.00;;
7971;SDS011;4031;49.758;6.120;2023-07-24T12:30:14;3.20;;;1.23;;
7971;SDS011;4031;49.758;6.120;2023-07-24T12:32:40;3.37;;;1.60;;
7971;SDS011;4031;49.758;6.120;2023-07-24T12:35:07;2.10;;;1.40;;
7971;SDS011;4031;49.758;6.120;2023-07-24T12:37:34;1.73;;;1.17;;
7971;SDS011;4031;49.758;6.120;2023-07-24T12:39:59;1.43;;;1.10;;
7971;SDS011;4031;49.758;6.120;2023-07-24T12:42:25;2.00;;;1.80;;
7971;SDS011;4031;49.758;6.120;2023-07-24T12:44:51;1.00;;;1.00;;
7971;SDS011;4031;49.758;6.120;2023-07-24T12:47:17;2.83;;;1.70;;
7971;SDS011;4031;49.758;6.120;2023-07-24T12:49:43;1.53;;;1.03;;
7971;SDS011;4031;49.758;6.120;2023-07-24T12:52:09;1.20;;;1.10;;
7971;SDS011;4031;49.758;6.120;2023-07-24T12:54:36;1.10;;;0.93;;
7971;SDS011;4031;49.758;6.120;2023-07-24T12:57:02;1.60;;;1.10;;
7971;SDS011;4031;49.758;6.120;2023-07-24T12:59:28;1.30;;;1.00;;
7971;SDS011;4031;49.758;6.120;2023-07-24T13:01:54;0.90;;;0.87;;
7971;SDS011;4031;49.758;6.120;2023-07-24T13:04:20;2.23;;;1.20;;
7971;SDS011;4031;49.758;6.120;2023-07-24T13:06:47;2.40;;;1.17;;
7971;SDS011;4031;49.758;6.120;2023-07-24T13:09:13;1.10;;;1.00;;
7971;SDS011;4031;49.758;6.120;2023-07-24T13:11:39;2.50;;;1.07;;
7971;SDS011;4031;49.758;6.120;2023-07-24T13:14:04;1.53;;;1.20;;
7971;SDS011;4031;49.758;6.120;2023-07-24T13:16:30;1.03;;;0.90;;
7971;SDS011;4031;49.758;6.120;2023-07-24T13:18:56;1.80;;;1.00;;
7971;SDS011;4031;49.758;6.120;2023-07-24T13:21:22;1.23;;;0.80;;
7971;SDS011;4031;49.758;6.120;2023-07-24T13:23:48;1.10;;;1.00;;
7971;SDS011;4031;49.758;6.120;2023-07-24T13:26:14;0.90;;;0.80;;
7971;SDS011;4031;49.758;6.120;2023-07-24T13:28:40;0.70;;;0.70;;
7971;SDS011;4031;49.758;6.120;2023-07-24T13:31:16;2.20;;;1.17;;
7971;SDS011;4031;49.758;6.120;2023-07-24T13:33:46;1.67;;;1.10;;
7971;SDS011;4031;49.758;6.120;2023-07-24T13:36:12;1.27;;;1.17;;
7971;SDS011;4031;49.758;6.120;2023-07-24T13:38:39;1.80;;;1.33;;
7971;SDS011;4031;49.758;6.120;2023-07-24T13:41:05;1.30;;;1.17;;
7971;SDS011;4031;49.758;6.120;2023-07-24T13:43:32;1.13;;;0.90;;
7971;SDS011;4031;49.758;6.120;2023-07-24T13:45:58;2.53;;;1.50;;
7971;SDS011;4031;49.758;6.120;2023-07-24T13:48:24;1.27;;;1.17;;
7971;SDS011;4031;49.758;6.120;2023-07-24T13:50:52;1.83;;;1.10;;
7971;SDS011;4031;49.758;6.120;2023-07-24T13:53:17;1.63;;;1.20;;
7971;SDS011;4031;49.758;6.120;2023-07-24T13:55:43;2.03;;;1.60;;
7971;SDS011;4031;49.758;6.120;2023-07-24T13:58:09;2.23;;;1.43;;
7971;SDS011;4031;49.758;6.120;2023-07-24T14:00:34;2.77;;;1.40;;
7971;SDS011;4031;49.758;6.120;2023-07-24T14:03:00;1.10;;;1.00;;
7971;SDS011;4031;49.758;6.120;2023-07-24T14:05:26;1.67;;;1.10;;
7971;SDS011;4031;49.758;6.120;2023-07-24T14:07:51;1.63;;;1.53;;
7971;SDS011;4031;49.758;6.120;2023-07-24T14:10:17;1.67;;;1.57;;
7971;SDS011;4031;49.758;6.120;2023-07-24T14:12:43;1.40;;;1.30;;
7971;SDS011;4031;49.758;6.120;2023-07-24T14:15:09;1.40;;;1.30;;
7971;SDS011;4031;49.758;6.120;2023-07-24T14:17:35;2.23;;;1.33;;
7971;SDS011;4031;49.758;6.120;2023-07-24T14:20:03;2.47;;;1.50;;
7971;SDS011;4031;49.758;6.120;2023-07-24T14:22:30;1.20;;;1.10;;
7971;SDS011;4031;49.758;6.120;2023-07-24T14:24:56;2.83;;;1.50;;
7971;SDS011;4031;49.758;6.120;2023-07-24T14:27:22;3.27;;;1.93;;
7971;SDS011;4031;49.758;6.120;2023-07-24T14:29:47;1.73;;;1.60;;
7971;SDS011;4031;49.758;6.120;2023-07-24T14:32:13;2.50;;;1.40;;
7971;SDS011;4031;49.758;6.120;2023-07-24T14:34:40;2.40;;;1.80;;
7971;SDS011;4031;49.758;6.120;2023-07-24T14:37:06;3.13;;;1.70;;
7971;SDS011;4031;49.758;6.120;2023-07-24T14:39:32;2.67;;;2.47;;
7971;SDS011;4031;49.758;6.120;2023-07-24T14:41:58;1.70;;;1.13;;
7971;SDS011;4031;49.758;6.120;2023-07-24T14:44:23;1.50;;;1.23;;
7971;SDS011;4031;49.758;6.120;2023-07-24T14:46:50;1.10;;;1.00;;
7971;SDS011;4031;49.758;6.120;2023-07-24T14:49:16;1.20;;;1.10;;
7971;SDS011;4031;49.758;6.120;2023-07-24T14:51:41;1.43;;;1.00;;
7971;SDS011;4031;49.758;6.120;2023-07-24T14:54:07;1.73;;;1.23;;
7971;SDS011;4031;49.758;6.120;2023-07-24T14:56:33;1.80;;;1.03;;
7971;SDS011;4031;49.758;6.120;2023-07-24T14:58:58;3.97;;;1.60;;
7971;SDS011;4031;49.758;6.120;2023-07-24T15:01:24;3.03;;;1.20;;
7971;SDS011;4031;49.758;6.120;2023-07-24T15:03:52;1.23;;;1.13;;
7971;SDS011;4031;49.758;6.120;2023-07-24T15:06:18;1.27;;;1.17;;
7971;SDS011;4031;49.758;6.120;2023-07-24T15:08:44;2.27;;;1.37;;
7971;SDS011;4031;49.758;6.120;2023-07-24T15:11:10;1.67;;;1.20;;
7971;SDS011;4031;49.758;6.120;2023-07-24T15:13:38;1.20;;;1.03;;
7971;SDS011;4031;49.758;6.120;2023-07-24T15:16:04;1.70;;;1.30;;
7971;SDS011;4031;49.758;6.120;2023-07-24T15:18:29;1.20;;;1.10;;
7971;SDS011;4031;49.758;6.120;2023-07-24T15:20:55;1.40;;;1.30;;